sensor_id;sensor_type;location;lat;lon;timestamp;temperature;humidity
4904;DHT22;2467;48.142;11.616;2022-12-07T00:00:19;4.40;99.90
4904;DHT22;2467;48.142;11.616;2022-12-07T00:00:51;4.40;99.90
4904;DHT22;2467;48.142;11.616;2022-12-07T00:01:25;4.40;99.90
4904;DHT22;2467;48.142;11.616;2022-12-07T00:01:57;4.40;99.90
4904;DHT22;2467;48.142;11.616;2022-12-07T00:02:30;4.30;99.90
4904;DHT22;2467;48.142;11.616;2022-12-07T00:03:02;4.40;99.90
4904;DHT22;2467;48.142;11.616;2022-12-07T00:03:36;4.40;99.90
4904;DHT22;2467;48.142;11.616;2022-12-07T00:04:11;4.40;99.90
4904;DHT22;2467;48.142;11.616;2022-12-07T00:04:43;4.40;99.90
4904;DHT22;2467;48.142;11.616;2022-12-07T00:05:16;4.40;99.90
4904;DHT22;2467;48.142;11.616;2022-12-07T00:05:48;4.40;99.90
4904;DHT22;2467;48.142;11.616;2022-12-07T00:06:20;4.40;99.90
4904;DHT22;2467;48.142;11.616;2022-12-07T00:06:53;4.40;99.90
4904;DHT22;2467;48.142;11.616;2022-12-07T00:07:25;4.40;99.90
4904;DHT22;2467;48.142;11.616;2022-12-07T00:07:58;4.40;99.90
4904;DHT22;2467;48.142;11.616;2022-12-07T00:08:31;4.40;99.90
4904;DHT22;2467;48.142;11.616;2022-12-07T00:09:03;4.40;99.90
4904;DHT22;2467;48.142;11.616;2022-12-07T00:09:37;4.50;99.90
4904;DHT22;2467;48.142;11.616;2022-12-07T00:10:11;4.50;99.90
4904;DHT22;2467;48.142;11.616;2022-12-07T00:10:43;4.50;99.90
4904;DHT22;2467;48.142;11.616;2022-12-07T00:11:18;4.50;99.90
4904;DHT22;2467;48.142;11.616;2022-12-07T00:11:51;4.40;99.90
4904;DHT22;2467;48.142;11.616;2022-12-07T00:12:24;4.40;99.90
4904;DHT22;2467;48.142;11.616;2022-12-07T00:12:55;4.40;99.90
4904;DHT22;2467;48.142;11.616;2022-12-07T00:13:27;4.40;99.90
4904;DHT22;2467;48.142;11.616;2022-12-07T00:14:01;4.40;99.90
4904;DHT22;2467;48.142;11.616;2022-12-07T00:14:34;4.30;99.90
4904;DHT22;2467;48.142;11.616;2022-12-07T00:15:06;4.30;99.90
4904;DHT22;2467;48.142;11.616;2022-12-07T00:15:38;4.30;99.90
4904;DHT22;2467;48.142;11.616;2022-12-07T00:16:13;4.30;99.90
4904;DHT22;2467;48.142;11.616;2022-12-07T00:16:45;4.40;99.90
4904;DHT22;2467;48.142;11.616;2022-12-07T00:17:20;4.40;99.90
4904;DHT22;2467;48.142;11.616;2022-12-07T00:17:52;4.40;99.90
4904;DHT22;2467;48.142;11.616;2022-12-07T00:18:24;4.40;99.90
4904;DHT22;2467;48.142;11.616;2022-12-07T00:18:57;4.40;99.90
4904;DHT22;2467;48.142;11.616;2022-12-07T00:19:29;4.30;99.90
4904;DHT22;2467;48.142;11.616;2022-12-07T00:20:02;4.30;99.90
4904;DHT22;2467;48.142;11.616;2022-12-07T00:20:35;4.30;99.90
4904;DHT22;2467;48.142;11.616;2022-12-07T00:21:10;4.30;99.90
4904;DHT22;2467;48.142;11.616;2022-12-07T00:21:43;4.30;99.90
4904;DHT22;2467;48.142;11.616;2022-12-07T00:22:15;4.20;99.90
4904;DHT22;2467;48.142;11.616;2022-12-07T00:22:46;4.20;99.90
4904;DHT22;2467;48.142;11.616;2022-12-07T00:23:19;4.20;99.90
4904;DHT22;2467;48.142;11.616;2022-12-07T00:23:52;4.20;99.90
4904;DHT22;2467;48.142;11.616;2022-12-07T00:24:24;4.30;99.90
4904;DHT22;2467;48.142;11.616;2022-12-07T00:24:57;4.30;99.90
4904;DHT22;2467;48.142;11.616;2022-12-07T00:25:31;4.30;99.90
4904;DHT22;2467;48.142;11.616;2022-12-07T00:26:04;4.30;99.90
4904;DHT22;2467;48.142;11.616;2022-12-07T00:26:38;4.30;99.90
4904;DHT22;2467;48.142;11.616;2022-12-07T00:27:10;4.30;99.90
4904;DHT22;2467;48.142;11.616;2022-12-07T00:27:43;4.40;99.90
4904;DHT22;2467;48.142;11.616;2022-12-07T00:28:15;4.40;99.90
4904;DHT22;2467;48.142;11.616;2022-12-07T00:28:49;4.40;99.90
4904;DHT22;2467;48.142;11.616;2022-12-07T00:29:22;4.40;99.90
4904;DHT22;2467;48.142;11.616;2022-12-07T00:29:54;4.40;99.90
4904;DHT22;2467;48.142;11.616;2022-12-07T00:30:26;4.40;99.90
4904;DHT22;2467;48.142;11.616;2022-12-07T00:31:03;4.40;99.90
4904;DHT22;2467;48.142;11.616;2022-12-07T00:31:37;4.30;99.90
4904;DHT22;2467;48.142;11.616;2022-12-07T00:32:10;4.30;99.90
4904;DHT22;2467;48.142;11.616;2022-12-07T00:32:43;4.20;99.90
4904;DHT22;2467;48.142;11.616;2022-12-07T00:33:15;4.20;99.90
4904;DHT22;2467;48.142;11.616;2022-12-07T00:33:47;4.20;99.90
4904;DHT22;2467;48.142;11.616;2022-12-07T00:34:21;4.20;99.90
4904;DHT22;2467;48.142;11.616;2022-12-07T00:34:53;4.10;99.90
4904;DHT22;2467;48.142;11.616;2022-12-07T00:35:25;4.20;99.90
4904;DHT22;2467;48.142;11.616;2022-12-07T00:35:58;4.10;99.90
4904;DHT22;2467;48.142;11.616;2022-12-07T00:36:30;4.10;99.90
4904;DHT22;2467;48.142;11.616;2022-12-07T00:37:01;4.10;99.90
4904;DHT22;2467;48.142;11.616;2022-12-07T00:37:34;4.10;99.90
4904;DHT22;2467;48.142;11.616;2022-12-07T00:38:06;4.20;99.90
4904;DHT22;2467;48.142;11.616;2022-12-07T00:38:39;4.20;99.90
4904;DHT22;2467;48.142;11.616;2022-12-07T00:39:12;4.10;99.90
4904;DHT22;2467;48.142;11.616;2022-12-07T00:39:46;4.20;99.90
4904;DHT22;2467;48.142;11.616;2022-12-07T00:40:18;4.20;99.90
4904;DHT22;2467;48.142;11.616;2022-12-07T00:40:56;4.20;99.90
4904;DHT22;2467;48.142;11.616;2022-12-07T00:41:29;4.20;99.90
4904;DHT22;2467;48.142;11.616;2022-12-07T00:42:01;4.20;99.90
4904;DHT22;2467;48.142;11.616;2022-12-07T00:42:34;4.20;99.90
4904;DHT22;2467;48.142;11.616;2022-12-07T00:43:05;4.20;99.90
4904;DHT22;2467;48.142;11.616;2022-12-07T00:43:37;4.20;99.90
4904;DHT22;2467;48.142;11.616;2022-12-07T00:44:10;4.20;99.90
4904;DHT22;2467;48.142;11.616;2022-12-07T00:44:42;4.20;99.90
4904;DHT22;2467;48.142;11.616;2022-12-07T00:45:14;4.20;99.90
4904;DHT22;2467;48.142;11.616;2022-12-07T00:45:47;4.20;99.90
4904;DHT22;2467;48.142;11.616;2022-12-07T00:46:19;4.20;99.90
4904;DHT22;2467;48.142;11.616;2022-12-07T00:46:52;4.20;99.90
4904;DHT22;2467;48.142;11.616;2022-12-07T00:47:25;4.20;99.90
4904;DHT22;2467;48.142;11.616;2022-12-07T00:47:56;4.20;99.90
4904;DHT22;2467;48.142;11.616;2022-12-07T00:48:29;4.20;99.90
4904;DHT22;2467;48.142;11.616;2022-12-07T00:49:02;4.20;99.90
4904;DHT22;2467;48.142;11.616;2022-12-07T00:49:34;4.20;99.90
4904;DHT22;2467;48.142;11.616;2022-12-07T00:50:07;4.20;99.90
4904;DHT22;2467;48.142;11.616;2022-12-07T00:50:39;4.20;99.90
4904;DHT22;2467;48.142;11.616;2022-12-07T00:51:12;4.20;99.90
4904;DHT22;2467;48.142;11.616;2022-12-07T00:51:44;4.20;99.90
4904;DHT22;2467;48.142;11.616;2022-12-07T00:52:17;4.20;99.90
4904;DHT22;2467;48.142;11.616;2022-12-07T00:52:49;4.20;99.90
4904;DHT22;2467;48.142;11.616;2022-12-07T00:53:21;4.20;99.90
4904;DHT22;2467;48.142;11.616;2022-12-07T00:53:54;4.30;99.90
4904;DHT22;2467;48.142;11.616;2022-12-07T00:54:26;4.20;99.90
4904;DHT22;2467;48.142;11.616;2022-12-07T00:54:58;4.20;99.90
4904;DHT22;2467;48.142;11.616;2022-12-07T00:55:32;4.20;99.90
4904;DHT22;2467;48.142;11.616;2022-12-07T00:56:06;4.20;99.90
4904;DHT22;2467;48.142;11.616;2022-12-07T00:56:38;4.20;99.90
4904;DHT22;2467;48.142;11.616;2022-12-07T00:57:11;4.30;99.90
4904;DHT22;2467;48.142;11.616;2022-12-07T00:57:43;4.40;99.90
4904;DHT22;2467;48.142;11.616;2022-12-07T00:58:15;4.40;99.90
4904;DHT22;2467;48.142;11.616;2022-12-07T00:58:52;4.40;99.90
4904;DHT22;2467;48.142;11.616;2022-12-07T00:59:24;4.40;99.90
4904;DHT22;2467;48.142;11.616;2022-12-07T00:59:57;4.40;99.90
4904;DHT22;2467;48.142;11.616;2022-12-07T01:00:30;4.40;99.90
4904;DHT22;2467;48.142;11.616;2022-12-07T01:01:03;4.40;99.90
4904;DHT22;2467;48.142;11.616;2022-12-07T01:01:36;4.40;99.90
4904;DHT22;2467;48.142;11.616;2022-12-07T01:02:08;4.40;99.90
4904;DHT22;2467;48.142;11.616;2022-12-07T01:02:40;4.40;99.90
4904;DHT22;2467;48.142;11.616;2022-12-07T01:03:14;4.40;99.90
4904;DHT22;2467;48.142;11.616;2022-12-07T01:03:46;4.40;99.90
4904;DHT22;2467;48.142;11.616;2022-12-07T01:04:18;4.40;99.90
4904;DHT22;2467;48.142;11.616;2022-12-07T01:04:51;4.40;99.90
4904;DHT22;2467;48.142;11.616;2022-12-07T01:05:23;4.50;99.90
4904;DHT22;2467;48.142;11.616;2022-12-07T01:05:55;4.50;99.90
4904;DHT22;2467;48.142;11.616;2022-12-07T01:06:28;4.50;99.90
4904;DHT22;2467;48.142;11.616;2022-12-07T01:07:02;4.50;99.90
4904;DHT22;2467;48.142;11.616;2022-12-07T01:07:33;4.50;99.90
4904;DHT22;2467;48.142;11.616;2022-12-07T01:08:06;4.50;99.90
4904;DHT22;2467;48.142;11.616;2022-12-07T01:08:38;4.50;99.90
4904;DHT22;2467;48.142;11.616;2022-12-07T01:09:10;4.50;99.90
4904;DHT22;2467;48.142;11.616;2022-12-07T01:09:42;4.50;99.90
4904;DHT22;2467;48.142;11.616;2022-12-07T01:10:14;4.60;99.90
4904;DHT22;2467;48.142;11.616;2022-12-07T01:10:47;4.60;99.90
4904;DHT22;2467;48.142;11.616;2022-12-07T01:11:23;4.60;99.90
4904;DHT22;2467;48.142;11.616;2022-12-07T01:11:55;4.60;99.90
4904;DHT22;2467;48.142;11.616;2022-12-07T01:12:28;4.50;99.90
4904;DHT22;2467;48.142;11.616;2022-12-07T01:13:00;4.60;99.90
4904;DHT22;2467;48.142;11.616;2022-12-07T01:13:32;4.60;99.90
4904;DHT22;2467;48.142;11.616;2022-12-07T01:14:05;4.50;99.90
4904;DHT22;2467;48.142;11.616;2022-12-07T01:14:37;4.50;99.90
4904;DHT22;2467;48.142;11.616;2022-12-07T01:15:10;4.50;99.90
4904;DHT22;2467;48.142;11.616;2022-12-07T01:15:43;4.50;99.90
4904;DHT22;2467;48.142;11.616;2022-12-07T01:16:16;4.40;99.90
4904;DHT22;2467;48.142;11.616;2022-12-07T01:16:48;4.40;99.90
4904;DHT22;2467;48.142;11.616;2022-12-07T01:17:21;4.40;99.90
4904;DHT22;2467;48.142;11.616;2022-12-07T01:17:53;4.40;99.90
4904;DHT22;2467;48.142;11.616;2022-12-07T01:18:26;4.40;99.90
4904;DHT22;2467;48.142;11.616;2022-12-07T01:18:59;4.50;99.90
4904;DHT22;2467;48.142;11.616;2022-12-07T01:19:32;4.40;99.90
4904;DHT22;2467;48.142;11.616;2022-12-07T01:20:05;4.50;99.90
4904;DHT22;2467;48.142;11.616;2022-12-07T01:20:37;4.60;99.90
4904;DHT22;2467;48.142;11.616;2022-12-07T01:21:12;4.60;99.90
4904;DHT22;2467;48.142;11.616;2022-12-07T01:21:44;4.60;99.90
4904;DHT22;2467;48.142;11.616;2022-12-07T01:22:16;4.70;99.90
4904;DHT22;2467;48.142;11.616;2022-12-07T01:22:48;4.60;99.90
4904;DHT22;2467;48.142;11.616;2022-12-07T01:23:20;4.60;99.90
4904;DHT22;2467;48.142;11.616;2022-12-07T01:23:52;4.60;99.90
4904;DHT22;2467;48.142;11.616;2022-12-07T01:24:25;4.70;99.90
4904;DHT22;2467;48.142;11.616;2022-12-07T01:24:57;4.70;99.90
4904;DHT22;2467;48.142;11.616;2022-12-07T01:25:29;4.60;99.90
4904;DHT22;2467;48.142;11.616;2022-12-07T01:26:05;4.60;99.90
4904;DHT22;2467;48.142;11.616;2022-12-07T01:26:38;4.60;99.90
4904;DHT22;2467;48.142;11.616;2022-12-07T01:27:10;4.60;99.90
4904;DHT22;2467;48.142;11.616;2022-12-07T01:27:43;4.60;99.90
4904;DHT22;2467;48.142;11.616;2022-12-07T01:28:15;4.60;99.90
4904;DHT22;2467;48.142;11.616;2022-12-07T01:28:47;4.60;99.90
4904;DHT22;2467;48.142;11.616;2022-12-07T01:29:20;4.60;99.90
4904;DHT22;2467;48.142;11.616;2022-12-07T01:29:52;4.50;99.90
4904;DHT22;2467;48.142;11.616;2022-12-07T01:30:24;4.50;99.90
4904;DHT22;2467;48.142;11.616;2022-12-07T01:30:58;4.50;99.90
4904;DHT22;2467;48.142;11.616;2022-12-07T01:31:30;4.50;99.90
4904;DHT22;2467;48.142;11.616;2022-12-07T01:32:02;4.50;99.90
4904;DHT22;2467;48.142;11.616;2022-12-07T01:32:35;4.60;99.90
4904;DHT22;2467;48.142;11.616;2022-12-07T01:33:06;4.60;99.90
4904;DHT22;2467;48.142;11.616;2022-12-07T01:33:39;4.60;99.90
4904;DHT22;2467;48.142;11.616;2022-12-07T01:34:11;4.70;99.90
4904;DHT22;2467;48.142;11.616;2022-12-07T01:34:44;4.70;99.90
4904;DHT22;2467;48.142;11.616;2022-12-07T01:35:16;4.70;99.90
4904;DHT22;2467;48.142;11.616;2022-12-07T01:35:47;4.70;99.90
4904;DHT22;2467;48.142;11.616;2022-12-07T01:36:21;4.70;99.90
4904;DHT22;2467;48.142;11.616;2022-12-07T01:36:54;4.70;99.90
4904;DHT22;2467;48.142;11.616;2022-12-07T01:37:26;4.80;99.90
4904;DHT22;2467;48.142;11.616;2022-12-07T01:37:58;4.80;99.90
4904;DHT22;2467;48.142;11.616;2022-12-07T01:38:30;4.80;99.90
4904;DHT22;2467;48.142;11.616;2022-12-07T01:39:04;4.80;99.90
4904;DHT22;2467;48.142;11.616;2022-12-07T01:39:36;4.80;99.90
4904;DHT22;2467;48.142;11.616;2022-12-07T01:40:10;4.70;99.90
4904;DHT22;2467;48.142;11.616;2022-12-07T01:40:42;4.70;99.90
4904;DHT22;2467;48.142;11.616;2022-12-07T01:41:14;4.70;99.90
4904;DHT22;2467;48.142;11.616;2022-12-07T01:41:47;4.70;99.90
4904;DHT22;2467;48.142;11.616;2022-12-07T01:42:20;4.70;99.90
4904;DHT22;2467;48.142;11.616;2022-12-07T01:42:52;4.70;99.90
4904;DHT22;2467;48.142;11.616;2022-12-07T01:43:27;4.70;99.90
4904;DHT22;2467;48.142;11.616;2022-12-07T01:44:22;4.70;99.90
4904;DHT22;2467;48.142;11.616;2022-12-07T01:45:36;4.70;99.90
4904;DHT22;2467;48.142;11.616;2022-12-07T01:46:09;4.70;99.90
4904;DHT22;2467;48.142;11.616;2022-12-07T01:46:43;4.60;99.90
4904;DHT22;2467;48.142;11.616;2022-12-07T01:47:15;4.60;99.90
4904;DHT22;2467;48.142;11.616;2022-12-07T01:47:51;4.50;99.90
4904;DHT22;2467;48.142;11.616;2022-12-07T01:48:27;4.50;99.90
4904;DHT22;2467;48.142;11.616;2022-12-07T01:48:59;4.50;99.90
4904;DHT22;2467;48.142;11.616;2022-12-07T01:49:35;4.50;99.90
4904;DHT22;2467;48.142;11.616;2022-12-07T01:50:08;4.50;99.90
4904;DHT22;2467;48.142;11.616;2022-12-07T01:50:42;4.50;99.90
4904;DHT22;2467;48.142;11.616;2022-12-07T01:51:15;4.50;99.90
4904;DHT22;2467;48.142;11.616;2022-12-07T01:51:49;4.50;99.90
4904;DHT22;2467;48.142;11.616;2022-12-07T01:52:24;4.50;99.90
4904;DHT22;2467;48.142;11.616;2022-12-07T01:52:59;4.50;99.90
4904;DHT22;2467;48.142;11.616;2022-12-07T01:53:34;4.50;99.90
4904;DHT22;2467;48.142;11.616;2022-12-07T01:54:07;4.40;99.90
4904;DHT22;2467;48.142;11.616;2022-12-07T01:54:39;4.50;99.90
4904;DHT22;2467;48.142;11.616;2022-12-07T01:55:13;4.50;99.90
4904;DHT22;2467;48.142;11.616;2022-12-07T01:55:48;4.40;99.90
4904;DHT22;2467;48.142;11.616;2022-12-07T01:56:25;4.40;99.90
4904;DHT22;2467;48.142;11.616;2022-12-07T01:57:00;4.40;99.90
4904;DHT22;2467;48.142;11.616;2022-12-07T01:57:34;4.30;99.90
4904;DHT22;2467;48.142;11.616;2022-12-07T01:58:08;4.40;99.90
4904;DHT22;2467;48.142;11.616;2022-12-07T01:58:42;4.40;99.90
4904;DHT22;2467;48.142;11.616;2022-12-07T01:59:15;4.40;99.90
4904;DHT22;2467;48.142;11.616;2022-12-07T01:59:49;4.40;99.90
4904;DHT22;2467;48.142;11.616;2022-12-07T02:00:23;4.40;99.90
4904;DHT22;2467;48.142;11.616;2022-12-07T02:00:55;4.40;99.90
4904;DHT22;2467;48.142;11.616;2022-12-07T02:01:27;4.50;99.90
4904;DHT22;2467;48.142;11.616;2022-12-07T02:02:02;4.50;99.90
4904;DHT22;2467;48.142;11.616;2022-12-07T02:02:39;4.50;99.90
4904;DHT22;2467;48.142;11.616;2022-12-07T02:03:16;4.50;99.90
4904;DHT22;2467;48.142;11.616;2022-12-07T02:03:51;4.50;99.90
4904;DHT22;2467;48.142;11.616;2022-12-07T02:04:23;4.50;99.90
4904;DHT22;2467;48.142;11.616;2022-12-07T02:04:56;4.50;99.90
4904;DHT22;2467;48.142;11.616;2022-12-07T02:05:30;4.50;99.90
4904;DHT22;2467;48.142;11.616;2022-12-07T02:06:03;4.50;99.90
4904;DHT22;2467;48.142;11.616;2022-12-07T02:06:36;4.50;99.90
4904;DHT22;2467;48.142;11.616;2022-12-07T02:07:09;4.50;99.90
4904;DHT22;2467;48.142;11.616;2022-12-07T02:07:42;4.50;99.90
4904;DHT22;2467;48.142;11.616;2022-12-07T02:08:14;4.50;99.90
4904;DHT22;2467;48.142;11.616;2022-12-07T02:08:47;4.50;99.90
4904;DHT22;2467;48.142;11.616;2022-12-07T02:09:19;4.50;99.90
4904;DHT22;2467;48.142;11.616;2022-12-07T02:09:51;4.40;99.90
4904;DHT22;2467;48.142;11.616;2022-12-07T02:10:26;4.40;99.90
4904;DHT22;2467;48.142;11.616;2022-12-07T02:10:58;4.40;99.90
4904;DHT22;2467;48.142;11.616;2022-12-07T02:11:30;4.40;99.90
4904;DHT22;2467;48.142;11.616;2022-12-07T02:12:05;4.50;99.90
4904;DHT22;2467;48.142;11.616;2022-12-07T02:12:37;4.50;99.90
4904;DHT22;2467;48.142;11.616;2022-12-07T02:13:11;4.50;99.90
4904;DHT22;2467;48.142;11.616;2022-12-07T02:13:46;4.50;99.90
4904;DHT22;2467;48.142;11.616;2022-12-07T02:14:18;4.50;99.90
4904;DHT22;2467;48.142;11.616;2022-12-07T02:14:50;4.60;99.90
4904;DHT22;2467;48.142;11.616;2022-12-07T02:15:28;4.60;99.90
4904;DHT22;2467;48.142;11.616;2022-12-07T02:16:14;4.50;99.90
4904;DHT22;2467;48.142;11.616;2022-12-07T02:17:01;4.60;99.90
4904;DHT22;2467;48.142;11.616;2022-12-07T02:17:42;4.60;99.90
4904;DHT22;2467;48.142;11.616;2022-12-07T02:18:23;4.50;99.90
4904;DHT22;2467;48.142;11.616;2022-12-07T02:19:08;4.50;99.90
4904;DHT22;2467;48.142;11.616;2022-12-07T02:20:11;4.50;99.90
4904;DHT22;2467;48.142;11.616;2022-12-07T02:20:52;4.50;99.90
4904;DHT22;2467;48.142;11.616;2022-12-07T02:21:32;4.40;99.90
4904;DHT22;2467;48.142;11.616;2022-12-07T02:22:18;4.40;99.90
4904;DHT22;2467;48.142;11.616;2022-12-07T02:24:24;4.40;99.90
4904;DHT22;2467;48.142;11.616;2022-12-07T02:25:09;4.50;99.90
4904;DHT22;2467;48.142;11.616;2022-12-07T02:25:58;4.50;99.90
4904;DHT22;2467;48.142;11.616;2022-12-07T02:27:09;4.50;99.90
4904;DHT22;2467;48.142;11.616;2022-12-07T02:27:52;4.50;99.90
4904;DHT22;2467;48.142;11.616;2022-12-07T02:28:30;4.60;99.90
4904;DHT22;2467;48.142;11.616;2022-12-07T02:29:11;4.60;99.90
4904;DHT22;2467;48.142;11.616;2022-12-07T02:29:47;4.60;99.90
4904;DHT22;2467;48.142;11.616;2022-12-07T02:30:22;4.60;99.90
4904;DHT22;2467;48.142;11.616;2022-12-07T02:31:01;4.70;99.90
4904;DHT22;2467;48.142;11.616;2022-12-07T02:31:37;4.70;99.90
4904;DHT22;2467;48.142;11.616;2022-12-07T02:32:14;4.70;99.90
4904;DHT22;2467;48.142;11.616;2022-12-07T02:32:53;4.70;99.90
4904;DHT22;2467;48.142;11.616;2022-12-07T02:33:31;4.80;99.90
4904;DHT22;2467;48.142;11.616;2022-12-07T02:34:09;4.80;99.90
4904;DHT22;2467;48.142;11.616;2022-12-07T02:34:48;4.80;99.90
4904;DHT22;2467;48.142;11.616;2022-12-07T02:35:24;4.80;99.90
4904;DHT22;2467;48.142;11.616;2022-12-07T02:36:02;4.80;99.90
4904;DHT22;2467;48.142;11.616;2022-12-07T02:36:39;4.80;99.90
4904;DHT22;2467;48.142;11.616;2022-12-07T02:37:21;4.80;99.90
4904;DHT22;2467;48.142;11.616;2022-12-07T02:38:02;4.70;99.90
4904;DHT22;2467;48.142;11.616;2022-12-07T02:38:39;4.70;99.90
4904;DHT22;2467;48.142;11.616;2022-12-07T02:39:17;4.70;99.90
4904;DHT22;2467;48.142;11.616;2022-12-07T02:39:56;4.70;99.90
4904;DHT22;2467;48.142;11.616;2022-12-07T02:40:34;4.60;99.90
4904;DHT22;2467;48.142;11.616;2022-12-07T02:41:12;4.50;99.90
4904;DHT22;2467;48.142;11.616;2022-12-07T02:41:48;4.50;99.90
4904;DHT22;2467;48.142;11.616;2022-12-07T02:42:25;4.50;99.90
4904;DHT22;2467;48.142;11.616;2022-12-07T02:43:03;4.50;99.90
4904;DHT22;2467;48.142;11.616;2022-12-07T02:43:40;4.50;99.90
4904;DHT22;2467;48.142;11.616;2022-12-07T02:44:18;4.50;99.90
4904;DHT22;2467;48.142;11.616;2022-12-07T02:44:52;4.50;99.90
4904;DHT22;2467;48.142;11.616;2022-12-07T02:45:25;4.60;99.90
4904;DHT22;2467;48.142;11.616;2022-12-07T02:46:02;4.60;99.90
4904;DHT22;2467;48.142;11.616;2022-12-07T02:46:40;4.60;99.90
4904;DHT22;2467;48.142;11.616;2022-12-07T02:47:15;4.50;99.90
4904;DHT22;2467;48.142;11.616;2022-12-07T02:47:51;4.50;99.90
4904;DHT22;2467;48.142;11.616;2022-12-07T02:48:26;4.50;99.90
4904;DHT22;2467;48.142;11.616;2022-12-07T02:48:59;4.50;99.90
4904;DHT22;2467;48.142;11.616;2022-12-07T02:49:32;4.40;99.90
4904;DHT22;2467;48.142;11.616;2022-12-07T02:50:06;4.50;99.90
4904;DHT22;2467;48.142;11.616;2022-12-07T02:50:38;4.60;99.90
4904;DHT22;2467;48.142;11.616;2022-12-07T02:51:11;4.60;99.90
4904;DHT22;2467;48.142;11.616;2022-12-07T02:51:45;4.80;99.90
4904;DHT22;2467;48.142;11.616;2022-12-07T02:52:17;4.70;99.90
4904;DHT22;2467;48.142;11.616;2022-12-07T02:52:49;4.70;99.90
4904;DHT22;2467;48.142;11.616;2022-12-07T02:53:30;4.70;99.90
4904;DHT22;2467;48.142;11.616;2022-12-07T02:54:02;4.80;99.90
4904;DHT22;2467;48.142;11.616;2022-12-07T02:54:34;4.80;99.90
4904;DHT22;2467;48.142;11.616;2022-12-07T02:55:08;4.90;99.90
4904;DHT22;2467;48.142;11.616;2022-12-07T02:55:41;4.80;99.90
4904;DHT22;2467;48.142;11.616;2022-12-07T02:56:19;4.90;99.90
4904;DHT22;2467;48.142;11.616;2022-12-07T02:56:59;4.90;99.90
4904;DHT22;2467;48.142;11.616;2022-12-07T02:57:45;4.90;99.90
4904;DHT22;2467;48.142;11.616;2022-12-07T02:58:32;4.90;99.90
4904;DHT22;2467;48.142;11.616;2022-12-07T02:59:16;4.90;99.90
4904;DHT22;2467;48.142;11.616;2022-12-07T03:00:00;4.80;99.90
4904;DHT22;2467;48.142;11.616;2022-12-07T03:00:38;4.80;99.90
4904;DHT22;2467;48.142;11.616;2022-12-07T03:01:23;4.90;99.90
4904;DHT22;2467;48.142;11.616;2022-12-07T03:02:06;4.80;99.90
4904;DHT22;2467;48.142;11.616;2022-12-07T03:02:50;4.80;99.90
4904;DHT22;2467;48.142;11.616;2022-12-07T03:03:25;4.80;99.90
4904;DHT22;2467;48.142;11.616;2022-12-07T03:04:04;4.80;99.90
4904;DHT22;2467;48.142;11.616;2022-12-07T03:04:45;4.80;99.90
4904;DHT22;2467;48.142;11.616;2022-12-07T03:05:44;4.80;99.90
4904;DHT22;2467;48.142;11.616;2022-12-07T03:06:22;4.80;99.90
4904;DHT22;2467;48.142;11.616;2022-12-07T03:07:01;4.90;99.90
4904;DHT22;2467;48.142;11.616;2022-12-07T03:07:39;4.90;99.90
4904;DHT22;2467;48.142;11.616;2022-12-07T03:08:21;4.90;99.90
4904;DHT22;2467;48.142;11.616;2022-12-07T03:09:01;4.90;99.90
4904;DHT22;2467;48.142;11.616;2022-12-07T03:09:41;5.00;99.90
4904;DHT22;2467;48.142;11.616;2022-12-07T03:10:21;5.00;99.90
4904;DHT22;2467;48.142;11.616;2022-12-07T03:10:57;4.90;99.90
4904;DHT22;2467;48.142;11.616;2022-12-07T03:11:33;4.90;99.90
4904;DHT22;2467;48.142;11.616;2022-12-07T03:12:12;4.90;99.90
4904;DHT22;2467;48.142;11.616;2022-12-07T03:12:54;5.00;99.90
4904;DHT22;2467;48.142;11.616;2022-12-07T03:13:32;4.90;99.90
4904;DHT22;2467;48.142;11.616;2022-12-07T03:14:13;4.90;99.90
4904;DHT22;2467;48.142;11.616;2022-12-07T03:14:55;4.90;99.90
4904;DHT22;2467;48.142;11.616;2022-12-07T03:15:32;4.90;99.90
4904;DHT22;2467;48.142;11.616;2022-12-07T03:16:09;5.00;99.90
4904;DHT22;2467;48.142;11.616;2022-12-07T03:16:49;5.00;99.90
4904;DHT22;2467;48.142;11.616;2022-12-07T03:17:26;5.00;99.90
4904;DHT22;2467;48.142;11.616;2022-12-07T03:18:00;5.00;99.90
4904;DHT22;2467;48.142;11.616;2022-12-07T03:18:38;5.00;99.90
4904;DHT22;2467;48.142;11.616;2022-12-07T03:19:13;5.00;99.90
4904;DHT22;2467;48.142;11.616;2022-12-07T03:19:50;4.90;99.90
4904;DHT22;2467;48.142;11.616;2022-12-07T03:20:25;4.80;99.90
4904;DHT22;2467;48.142;11.616;2022-12-07T03:21:01;4.80;99.90
4904;DHT22;2467;48.142;11.616;2022-12-07T03:21:38;4.80;99.90
4904;DHT22;2467;48.142;11.616;2022-12-07T03:22:12;4.80;99.90
4904;DHT22;2467;48.142;11.616;2022-12-07T03:22:46;4.90;99.90
4904;DHT22;2467;48.142;11.616;2022-12-07T03:23:21;4.90;99.90
4904;DHT22;2467;48.142;11.616;2022-12-07T03:23:56;4.90;99.90
4904;DHT22;2467;48.142;11.616;2022-12-07T03:24:36;4.90;99.90
4904;DHT22;2467;48.142;11.616;2022-12-07T03:25:10;4.90;99.90
4904;DHT22;2467;48.142;11.616;2022-12-07T03:25:47;4.90;99.90
4904;DHT22;2467;48.142;11.616;2022-12-07T03:26:22;4.90;99.90
4904;DHT22;2467;48.142;11.616;2022-12-07T03:27:01;4.90;99.90
4904;DHT22;2467;48.142;11.616;2022-12-07T03:27:40;4.80;99.90
4904;DHT22;2467;48.142;11.616;2022-12-07T03:28:16;4.80;99.90
4904;DHT22;2467;48.142;11.616;2022-12-07T03:28:52;4.80;99.90
4904;DHT22;2467;48.142;11.616;2022-12-07T03:29:29;4.80;99.90
4904;DHT22;2467;48.142;11.616;2022-12-07T03:30:06;4.70;99.90
4904;DHT22;2467;48.142;11.616;2022-12-07T03:30:44;4.70;99.90
4904;DHT22;2467;48.142;11.616;2022-12-07T03:31:19;4.70;99.90
4904;DHT22;2467;48.142;11.616;2022-12-07T03:31:58;4.70;99.90
4904;DHT22;2467;48.142;11.616;2022-12-07T03:32:36;4.70;99.90
4904;DHT22;2467;48.142;11.616;2022-12-07T03:33:11;4.80;99.90
4904;DHT22;2467;48.142;11.616;2022-12-07T03:33:49;4.80;99.90
4904;DHT22;2467;48.142;11.616;2022-12-07T03:34:28;4.80;99.90
4904;DHT22;2467;48.142;11.616;2022-12-07T03:35:03;4.90;99.90
4904;DHT22;2467;48.142;11.616;2022-12-07T03:35:41;4.90;99.90
4904;DHT22;2467;48.142;11.616;2022-12-07T03:36:21;4.90;99.90
4904;DHT22;2467;48.142;11.616;2022-12-07T03:36:59;4.90;99.90
4904;DHT22;2467;48.142;11.616;2022-12-07T03:37:36;4.90;99.90
4904;DHT22;2467;48.142;11.616;2022-12-07T03:38:14;4.90;99.90
4904;DHT22;2467;48.142;11.616;2022-12-07T03:38:50;4.90;99.90
4904;DHT22;2467;48.142;11.616;2022-12-07T03:39:29;4.90;99.90
4904;DHT22;2467;48.142;11.616;2022-12-07T03:40:08;4.90;99.90
4904;DHT22;2467;48.142;11.616;2022-12-07T03:40:47;4.90;99.90
4904;DHT22;2467;48.142;11.616;2022-12-07T03:41:24;4.70;99.90
4904;DHT22;2467;48.142;11.616;2022-12-07T03:41:59;4.70;99.90
4904;DHT22;2467;48.142;11.616;2022-12-07T03:42:33;4.60;99.90
4904;DHT22;2467;48.142;11.616;2022-12-07T03:43:05;4.60;99.90
4904;DHT22;2467;48.142;11.616;2022-12-07T03:43:39;4.70;99.90
4904;DHT22;2467;48.142;11.616;2022-12-07T03:44:12;4.70;99.90
4904;DHT22;2467;48.142;11.616;2022-12-07T03:44:45;4.70;99.90
4904;DHT22;2467;48.142;11.616;2022-12-07T03:45:23;4.70;99.90
4904;DHT22;2467;48.142;11.616;2022-12-07T03:46:01;4.70;99.90
4904;DHT22;2467;48.142;11.616;2022-12-07T03:46:42;4.70;99.90
4904;DHT22;2467;48.142;11.616;2022-12-07T03:47:23;4.70;99.90
4904;DHT22;2467;48.142;11.616;2022-12-07T03:48:03;4.70;99.90
4904;DHT22;2467;48.142;11.616;2022-12-07T03:48:41;4.70;99.90
4904;DHT22;2467;48.142;11.616;2022-12-07T03:49:23;4.70;99.90
4904;DHT22;2467;48.142;11.616;2022-12-07T03:49:59;4.70;99.90
4904;DHT22;2467;48.142;11.616;2022-12-07T03:50:38;4.70;99.90
4904;DHT22;2467;48.142;11.616;2022-12-07T03:51:19;4.70;99.90